Decoded Metar for SLRB (ROBORE in BOLIVIA) (IATA:N/A) | Meteo·Mobile Aviation Weather
aviador You're here:

SLRB Decoded Metar

ROBORE in BOLIVIA
Report Time2018-09-18 23:00:00
UTC Time2018-09-18 23:21:41
Flight Rules vfr VFR
WindCalm
Visibility9999 m
Phenomena:N/A
Clouds:N/A
Expected CloudBase > 1,200 ft AGL from Temp-Dew spread
CeilingNone
Temp27°C (ISA +14)
Dew Point24°C (84% RH)
Heat Index30.1°C
QNH1008 hPa
Density Alt3,094 ft
Elevation932 ft
Report Wrong Elevation
Raw Report
SLRB 182300Z 00000KT 9999 NSC 27/24 Q1008=

Extra information for SLRB:More info

Metar Taf Metar & Taf Last 4 Metars F.Rules Stats Wind Profile Meteogram Temp Stats Airport Information Weather charts Add Link Nearby VenuesMetar ALERT Operation Metar Decoded Social comments